createdAt,value
2023-04-14T00:00:24.035Z,50.902405
2023-04-14T00:01:24.029Z,50.902382
2023-04-14T00:02:24.182Z,50.902416
2023-04-14T00:03:24.262Z,50.902443
2023-04-14T00:04:24.288Z,50.902416
2023-04-14T00:05:23.994Z,50.902420
2023-04-14T00:06:23.989Z,50.902393
2023-04-14T00:07:23.982Z,50.902382
2023-04-14T00:08:23.998Z,50.902386
2023-04-14T00:09:23.963Z,50.902397
2023-04-14T00:10:23.964Z,50.902412
2023-04-14T00:11:23.952Z,50.902412
2023-04-14T00:12:23.950Z,50.902405
2023-04-14T00:13:23.966Z,50.902325
2023-04-14T00:14:23.948Z,50.902359
2023-04-14T00:15:23.918Z,50.902447
2023-04-14T00:16:23.945Z,50.902412
2023-04-14T00:17:23.928Z,50.902454
2023-04-14T00:18:23.961Z,50.902473
2023-04-14T00:19:23.903Z,50.902424
2023-04-14T00:20:23.898Z,50.902374
2023-04-14T00:21:23.873Z,50.902405
2023-04-14T00:22:23.866Z,50.902382
2023-04-14T00:23:23.898Z,50.902409
2023-04-14T00:24:23.861Z,50.902439
2023-04-14T00:25:23.846Z,50.902412
2023-04-14T00:26:23.844Z,50.902405
2023-04-14T00:27:23.838Z,50.902382
2023-04-14T00:28:23.855Z,50.902393
2023-04-14T00:29:24.836Z,50.902424
2023-04-14T00:30:23.814Z,50.902428
2023-04-14T00:31:23.807Z,50.902470
2023-04-14T00:32:23.841Z,50.902424
2023-04-14T00:33:23.815Z,50.902409
2023-04-14T00:34:23.780Z,50.902435
2023-04-14T00:35:23.791Z,50.902409
2023-04-14T00:36:23.763Z,50.902447
2023-04-14T00:37:23.766Z,50.902390
2023-04-14T00:38:23.781Z,50.902367
2023-04-14T00:39:23.755Z,50.902355
2023-04-14T00:40:23.731Z,50.902378
2023-04-14T00:41:23.728Z,50.902370
2023-04-14T00:42:23.716Z,50.902348
2023-04-14T00:43:23.739Z,50.902412
2023-04-14T00:44:23.707Z,50.902397
2023-04-14T00:45:23.694Z,50.902412
2023-04-14T00:46:23.771Z,50.902458
2023-04-14T00:47:23.717Z,50.902420
2023-04-14T00:48:23.690Z,50.902412
2023-04-14T00:49:23.662Z,50.902424
2023-04-14T00:50:23.688Z,50.902431
2023-04-14T00:51:23.651Z,50.902409
2023-04-14T00:52:23.633Z,50.902340
2023-04-14T00:53:23.651Z,50.902386
2023-04-14T00:54:23.616Z,50.902412
2023-04-14T00:55:23.609Z,50.902405
2023-04-14T00:56:23.601Z,50.902596
2023-04-14T00:57:23.601Z,50.902519
2023-04-14T00:58:23.620Z,50.902477
2023-04-14T00:59:23.577Z,50.902416
2023-04-14T01:00:23.576Z,50.902458
2023-04-14T01:01:23.582Z,50.902485
2023-04-14T01:02:24.694Z,50.902454
2023-04-14T01:03:23.654Z,50.902420
2023-04-14T01:04:29.256Z,50.902374
2023-04-14T01:05:24.656Z,50.902367
2023-04-14T01:06:23.547Z,50.902462
2023-04-14T01:07:23.515Z,50.902428
2023-04-14T01:08:23.560Z,50.902454
2023-04-14T01:09:23.513Z,50.902439
2023-04-14T01:10:23.501Z,50.902401
2023-04-14T01:11:23.481Z,50.902401
2023-04-14T01:12:23.478Z,50.902409
2023-04-14T01:13:23.502Z,50.902412
2023-04-14T01:14:23.468Z,50.902428
2023-04-14T01:15:23.461Z,50.902443
2023-04-14T01:16:23.506Z,50.902390
2023-04-14T01:17:23.501Z,50.902424
2023-04-14T01:18:23.489Z,50.902378
2023-04-14T01:19:23.429Z,50.902390
2023-04-14T01:20:23.425Z,50.902431
2023-04-14T01:21:23.446Z,50.902451
2023-04-14T01:22:23.425Z,50.902397
2023-04-14T01:23:23.435Z,50.902412
2023-04-14T01:24:23.404Z,50.902420
2023-04-14T01:25:23.403Z,50.902416
2023-04-14T01:26:23.376Z,50.902409
2023-04-14T01:27:23.377Z,50.902401
2023-04-14T01:28:23.386Z,50.902401
2023-04-14T01:29:23.367Z,50.902409
2023-04-14T01:30:23.351Z,50.902420
2023-04-14T01:31:23.408Z,50.902401
2023-04-14T01:32:23.352Z,50.902405
2023-04-14T01:33:23.347Z,50.902405
2023-04-14T01:34:23.332Z,50.902397
2023-04-14T01:35:23.306Z,50.902424
2023-04-14T01:36:23.302Z,50.902428
2023-04-14T01:37:23.299Z,50.902393
2023-04-14T01:38:23.321Z,50.902382
2023-04-14T01:39:23.292Z,50.902386
2023-04-14T01:40:23.277Z,50.902401
2023-04-14T01:41:23.267Z,50.902458
2023-04-14T01:42:23.273Z,50.902435
2023-04-14T01:43:23.276Z,50.902443
2023-04-14T01:44:23.250Z,50.902443
2023-04-14T01:45:23.247Z,50.902496
2023-04-14T01:46:23.229Z,50.902428
2023-04-14T01:47:23.270Z,50.902405
2023-04-14T01:48:23.239Z,50.902431
2023-04-14T01:49:23.238Z,50.902428
2023-04-14T01:50:23.209Z,50.902401
2023-04-14T01:51:23.206Z,50.902416
2023-04-14T01:52:23.188Z,50.902416
2023-04-14T01:53:23.197Z,50.902405
2023-04-14T01:54:23.162Z,50.902447
2023-04-14T01:55:23.160Z,50.902420
2023-04-14T01:56:23.152Z,50.902409
2023-04-14T01:57:23.196Z,50.902462
2023-04-14T01:58:23.167Z,50.902447
2023-04-14T01:59:23.139Z,50.902451
2023-04-14T02:00:23.127Z,50.902454
2023-04-14T02:01:23.126Z,50.902454
2023-04-14T02:02:23.275Z,50.902431
2023-04-14T02:03:23.203Z,50.902435
2023-04-14T02:04:23.144Z,50.902439
2023-04-14T02:05:23.090Z,50.902431
2023-04-14T02:06:23.114Z,50.902451
2023-04-14T02:07:23.076Z,50.902473
2023-04-14T02:08:23.106Z,50.902443
2023-04-14T02:09:23.072Z,50.902424
2023-04-14T02:10:23.052Z,50.902447
2023-04-14T02:11:23.054Z,50.902443
2023-04-14T02:12:23.037Z,50.902431
2023-04-14T02:13:23.060Z,50.902435
2023-04-14T02:14:23.016Z,50.902454
2023-04-14T02:15:23.025Z,50.902451
2023-04-14T02:16:23.038Z,50.902466
2023-04-14T02:17:23.023Z,50.902435
2023-04-14T02:18:23.011Z,50.902420
2023-04-14T02:19:22.986Z,50.902439
2023-04-14T02:20:22.985Z,50.902462
2023-04-14T02:21:22.973Z,50.902393
2023-04-14T02:22:22.973Z,50.902412
2023-04-14T02:23:23.006Z,50.902447
2023-04-14T02:24:22.953Z,50.902500
2023-04-14T02:25:22.940Z,50.902447
2023-04-14T02:26:22.927Z,50.902439
2023-04-14T02:27:22.916Z,50.902435
2023-04-14T02:28:22.943Z,50.902447
2023-04-14T02:29:22.907Z,50.902420
2023-04-14T02:30:22.897Z,50.902447
2023-04-14T02:31:22.927Z,50.902435
2023-04-14T02:32:22.952Z,50.902378
2023-04-14T02:33:22.948Z,50.902363
2023-04-14T02:34:22.873Z,50.902370
2023-04-14T02:35:22.856Z,50.902378
2023-04-14T02:36:22.852Z,50.902397
2023-04-14T02:37:22.849Z,50.902416
2023-04-14T02:38:22.864Z,50.902405
2023-04-14T02:39:22.833Z,50.902401
2023-04-14T02:40:22.827Z,50.902420
2023-04-14T02:41:22.825Z,50.902424
2023-04-14T02:42:22.808Z,50.902416
2023-04-14T02:43:22.812Z,50.902431
2023-04-14T02:44:22.809Z,50.902428
2023-04-14T02:45:22.798Z,50.902412
2023-04-14T02:46:22.811Z,50.902424
2023-04-14T02:47:22.814Z,50.902409
2023-04-14T02:48:22.792Z,50.902378
2023-04-14T02:49:22.833Z,50.902355
2023-04-14T02:50:22.767Z,50.902374
2023-04-14T02:51:22.750Z,50.902393
2023-04-14T02:52:22.737Z,50.902401
2023-04-14T02:53:22.737Z,50.902386
2023-04-14T02:54:22.740Z,50.902390
2023-04-14T02:55:22.718Z,50.902367
2023-04-14T02:56:22.724Z,50.902386
2023-04-14T02:57:22.711Z,50.902393
2023-04-14T02:58:22.691Z,50.902378
2023-04-14T02:59:22.722Z,50.902378
2023-04-14T03:00:22.699Z,50.902393
2023-04-14T03:01:22.704Z,50.902397
2023-04-14T03:02:22.757Z,50.902405
2023-04-14T03:03:22.695Z,50.902447
2023-04-14T03:04:22.712Z,50.902420
2023-04-14T03:05:22.633Z,50.902416
2023-04-14T03:06:22.639Z,50.902405
2023-04-14T03:07:22.631Z,50.902397
2023-04-14T03:08:22.656Z,50.902428
2023-04-14T03:09:22.645Z,50.902451
2023-04-14T03:10:22.603Z,50.902420
2023-04-14T03:11:22.598Z,50.902397
2023-04-14T03:12:22.578Z,50.902416
2023-04-14T03:13:22.581Z,50.902393
2023-04-14T03:14:22.597Z,50.902409
2023-04-14T03:15:22.561Z,50.902405
2023-04-14T03:16:22.712Z,50.902397
2023-04-14T03:17:22.563Z,50.902405
2023-04-14T03:18:22.534Z,50.902374
2023-04-14T03:19:22.562Z,50.902378
2023-04-14T03:20:22.521Z,50.902393
2023-04-14T03:21:22.512Z,50.902382
2023-04-14T03:22:22.510Z,50.902382
2023-04-14T03:23:22.497Z,50.902382
2023-04-14T03:24:22.510Z,50.902367
2023-04-14T03:25:22.500Z,50.902397
2023-04-14T03:26:22.478Z,50.902420
2023-04-14T03:27:22.472Z,50.902397
2023-04-14T03:28:22.454Z,50.902386
2023-04-14T03:29:22.481Z,50.902401
2023-04-14T03:30:22.450Z,50.902378
2023-04-14T03:31:22.492Z,50.902386
2023-04-14T03:32:22.462Z,50.902382
2023-04-14T03:33:22.426Z,50.902405
2023-04-14T03:34:22.441Z,50.902504
2023-04-14T03:35:22.428Z,50.902470
2023-04-14T03:36:22.400Z,50.902363
2023-04-14T03:37:22.390Z,50.902393
2023-04-14T03:38:22.391Z,50.902332
2023-04-14T03:39:22.413Z,50.902382
2023-04-14T03:40:22.368Z,50.902370
2023-04-14T03:41:22.359Z,50.902355
2023-04-14T03:42:22.353Z,50.902412
2023-04-14T03:43:22.348Z,50.902397
2023-04-14T03:44:22.359Z,50.902386
2023-04-14T03:45:22.332Z,50.902435
2023-04-14T03:46:22.349Z,50.902431
2023-04-14T03:47:22.331Z,50.902370
2023-04-14T03:48:22.308Z,50.902374
2023-04-14T03:49:22.324Z,50.902397
2023-04-14T03:50:22.301Z,50.902393
2023-04-14T03:51:22.308Z,50.902451
2023-04-14T03:52:22.282Z,50.902466
2023-04-14T03:53:22.274Z,50.902470
2023-04-14T03:54:22.309Z,50.902428
2023-04-14T03:55:22.262Z,50.902428
2023-04-14T03:56:22.261Z,50.902409
2023-04-14T03:57:22.241Z,50.902424
2023-04-14T03:58:22.238Z,50.902447
2023-04-14T03:59:22.263Z,50.902458
2023-04-14T04:00:22.321Z,50.902512
2023-04-14T04:01:22.297Z,50.902473
2023-04-14T04:02:22.557Z,50.902466
2023-04-14T04:03:22.380Z,50.902431
2023-04-14T04:04:22.300Z,50.902382
2023-04-14T04:05:22.225Z,50.902420
2023-04-14T04:06:22.174Z,50.902466
2023-04-14T04:07:22.154Z,50.902447
2023-04-14T04:08:22.157Z,50.902428
2023-04-14T04:09:22.205Z,50.902386
2023-04-14T04:10:22.161Z,50.902424
2023-04-14T04:11:22.157Z,50.902462
2023-04-14T04:12:22.145Z,50.902458
2023-04-14T04:13:22.117Z,50.902462
2023-04-14T04:14:22.116Z,50.902424
2023-04-14T04:15:22.138Z,50.902409
2023-04-14T04:16:22.150Z,50.902473
2023-04-14T04:17:22.141Z,50.902508
2023-04-14T04:18:22.076Z,50.902504
2023-04-14T04:19:22.097Z,50.902500
2023-04-14T04:20:22.082Z,50.902470
2023-04-14T04:21:22.054Z,50.902458
2023-04-14T04:22:22.039Z,50.902439
2023-04-14T04:23:22.044Z,50.902431
2023-04-14T04:24:22.072Z,50.902390
2023-04-14T04:25:22.035Z,50.902409
2023-04-14T04:26:22.024Z,50.902409
2023-04-14T04:27:28.235Z,50.902405
2023-04-14T04:28:24.001Z,50.902367
2023-04-14T04:29:22.024Z,50.902431
2023-04-14T04:30:21.998Z,50.902439
2023-04-14T04:31:21.990Z,50.902420
2023-04-14T04:32:22.088Z,50.902431
2023-04-14T04:33:21.956Z,50.902470
2023-04-14T04:34:21.976Z,50.902447
2023-04-14T04:35:21.941Z,50.902424
2023-04-14T04:36:21.938Z,50.902454
2023-04-14T04:37:21.933Z,50.902447
2023-04-14T04:38:21.917Z,50.902420
2023-04-14T04:39:21.941Z,50.902443
2023-04-14T04:40:21.911Z,50.902424
2023-04-14T04:41:21.904Z,50.902412
2023-04-14T04:42:21.883Z,50.902428
2023-04-14T04:43:21.886Z,50.902458
2023-04-14T04:44:21.903Z,50.902431
2023-04-14T04:45:21.869Z,50.902416
2023-04-14T04:46:21.933Z,50.902416
2023-04-14T04:47:21.907Z,50.902420
2023-04-14T04:48:21.855Z,50.902420
2023-04-14T04:49:21.860Z,50.902439
2023-04-14T04:50:21.842Z,50.902405
2023-04-14T04:51:21.840Z,50.902420
2023-04-14T04:52:21.822Z,50.902382
2023-04-14T05:02:59.106Z,50.902374
2023-04-14T05:03:58.857Z,50.902409
2023-04-14T05:04:58.847Z,50.902431
2023-04-14T05:05:58.815Z,50.902443
2023-04-14T05:06:58.814Z,50.902409
2023-04-14T05:07:58.810Z,50.902420
2023-04-14T05:08:58.940Z,50.902454
2023-04-14T05:09:58.853Z,50.902401
2023-04-14T05:10:58.787Z,50.902397
2023-04-14T05:11:58.783Z,50.902416
2023-04-14T05:12:58.774Z,50.902439
2023-04-14T05:13:58.834Z,50.902420
2023-04-14T05:14:58.778Z,50.902431
2023-04-14T05:15:58.779Z,50.902481
2023-04-14T05:16:58.735Z,50.902454
2023-04-14T05:17:58.750Z,50.902420
2023-04-14T05:18:58.978Z,50.902443
2023-04-14T05:19:58.740Z,50.902428
2023-04-14T05:20:58.710Z,50.902397
2023-04-14T05:21:58.698Z,50.902382
2023-04-14T05:22:58.710Z,50.902390
2023-04-14T05:23:58.682Z,50.902367
2023-04-14T05:24:58.690Z,50.902332
2023-04-14T05:26:14.408Z,50.902382
2023-04-14T05:27:13.711Z,50.902431
2023-04-14T05:28:00.654Z,50.902512
2023-04-14T05:28:58.744Z,50.902466
2023-04-14T05:29:58.675Z,50.902462
2023-04-14T05:31:00.610Z,50.902512
2023-04-14T05:31:58.611Z,50.902470
2023-04-14T05:32:58.645Z,50.902420
2023-04-14T05:33:58.798Z,50.902409
2023-04-14T05:34:58.664Z,50.902397
2023-04-14T05:35:58.622Z,50.902435
2023-04-14T05:36:58.618Z,50.902462
2023-04-14T05:37:58.570Z,50.902428
2023-04-14T05:38:58.633Z,50.902412
2023-04-14T05:39:58.606Z,50.902397
2023-04-14T05:40:58.548Z,50.902397
2023-04-14T05:41:58.540Z,50.902397
2023-04-14T05:42:58.537Z,50.902397
2023-04-14T05:43:58.587Z,50.902420
2023-04-14T05:44:58.554Z,50.902435
2023-04-14T05:45:58.521Z,50.902325
2023-04-14T05:46:58.545Z,50.902424
2023-04-14T05:47:58.524Z,50.902454
2023-04-14T05:48:58.609Z,50.902431
2023-04-14T05:49:58.566Z,50.902428
2023-04-14T05:50:58.488Z,50.902439
2023-04-14T05:51:58.484Z,50.902443
2023-04-14T05:52:58.465Z,50.902428
2023-04-14T05:53:58.614Z,50.902439
2023-04-14T05:54:58.484Z,50.902431
2023-04-14T05:55:58.461Z,50.902428
2023-04-14T05:56:58.442Z,50.902431
2023-04-14T05:57:58.446Z,50.902435
2023-04-14T05:58:58.445Z,50.902420
2023-04-14T05:59:58.510Z,50.902420
2023-04-14T06:00:58.419Z,50.902416
2023-04-14T06:01:58.421Z,50.902412
2023-04-14T06:02:58.561Z,50.902412
2023-04-14T06:03:58.625Z,50.902424
2023-04-14T06:04:58.461Z,50.902424
2023-04-14T06:05:58.377Z,50.902424
2023-04-14T06:06:58.362Z,50.902420
2023-04-14T06:07:58.350Z,50.902416
2023-04-14T06:08:58.448Z,50.902416
2023-04-14T06:09:58.409Z,50.902428
2023-04-14T06:10:58.330Z,50.902397
2023-04-14T06:11:58.317Z,50.902401
2023-04-14T06:12:58.319Z,50.902412
2023-04-14T06:13:58.351Z,50.902412
2023-04-14T06:14:58.354Z,50.902412
2023-04-14T06:15:58.305Z,50.902405
2023-04-14T06:16:58.306Z,50.902454
2023-04-14T06:17:58.292Z,50.902409
2023-04-14T06:18:58.361Z,50.902412
2023-04-14T06:19:58.303Z,50.902409
2023-04-14T06:20:58.264Z,50.902416
2023-04-14T06:21:58.244Z,50.902409
2023-04-14T06:22:58.243Z,50.902428
2023-04-14T06:23:58.242Z,50.902416
2023-04-14T06:24:58.289Z,50.902401
2023-04-14T06:25:58.229Z,50.902397
2023-04-14T06:26:58.211Z,50.902401
2023-04-14T06:27:58.205Z,50.902412
2023-04-14T06:28:58.358Z,50.902393
2023-04-14T06:29:58.217Z,50.902401
2023-04-14T06:30:58.221Z,50.902420
2023-04-14T06:31:58.212Z,50.902412
2023-04-14T06:32:58.235Z,50.902447
2023-04-14T06:33:58.294Z,50.902424
2023-04-14T06:34:58.190Z,50.902401
2023-04-14T06:35:58.141Z,50.902401
2023-04-14T06:36:58.144Z,50.902412
2023-04-14T06:37:58.135Z,50.902405
2023-04-14T06:38:58.268Z,50.902424
2023-04-14T06:39:58.172Z,50.902428
2023-04-14T06:40:58.104Z,50.902424
2023-04-14T06:41:58.108Z,50.902428
2023-04-14T06:42:58.107Z,50.902390
2023-04-14T06:43:58.085Z,50.902405
2023-04-14T06:44:58.114Z,50.902363
2023-04-14T06:45:58.124Z,50.902409
2023-04-14T06:46:58.084Z,50.902435
2023-04-14T06:47:58.066Z,50.902454
2023-04-14T06:48:58.054Z,50.902420
2023-04-14T06:49:58.086Z,50.902443
2023-04-14T06:50:58.039Z,50.902401
2023-04-14T06:51:58.046Z,50.902420
2023-04-14T06:52:58.018Z,50.902428
2023-04-14T06:53:58.014Z,50.902439
2023-04-14T06:54:58.022Z,50.902439
2023-04-14T06:55:58.193Z,50.902405
2023-04-14T06:57:00.035Z,50.902431
2023-04-14T06:57:57.987Z,50.902409
2023-04-14T06:58:57.969Z,50.902416
2023-04-14T06:59:57.993Z,50.902405
2023-04-14T07:00:57.988Z,50.902405
2023-04-14T07:01:58.085Z,50.902420
2023-04-14T07:02:58.134Z,50.902397
2023-04-14T07:03:58.031Z,50.902386
2023-04-14T07:04:58.051Z,50.902405
2023-04-14T07:05:57.921Z,50.902412
2023-04-14T07:06:57.931Z,50.902416
2023-04-14T07:07:57.899Z,50.902412
2023-04-14T07:08:57.902Z,50.902363
2023-04-14T07:09:57.945Z,50.902397
2023-04-14T07:10:57.872Z,50.902367
2023-04-14T07:11:57.891Z,50.902378
2023-04-14T07:12:57.877Z,50.902359
2023-04-14T07:13:57.863Z,50.902378
2023-04-14T07:14:57.879Z,50.902451
2023-04-14T07:15:57.860Z,50.902409
2023-04-14T07:16:57.832Z,50.902405
2023-04-14T07:17:59.916Z,50.902390
2023-04-14T07:18:58.814Z,50.902405
2023-04-14T07:19:57.837Z,50.902431
2023-04-14T07:20:57.800Z,50.902431
2023-04-14T07:21:58.489Z,50.902405
2023-04-14T07:22:58.794Z,50.902405
2023-04-14T07:23:57.774Z,50.902340
2023-04-14T07:24:57.802Z,50.902351
2023-04-14T07:25:57.789Z,50.902397
2023-04-14T07:26:57.779Z,50.902355
2023-04-14T07:28:03.157Z,50.902367
2023-04-14T07:28:59.736Z,50.902363
2023-04-14T07:29:57.763Z,50.902351
2023-04-14T07:30:57.787Z,50.902374
2023-04-14T07:31:57.719Z,50.902363
2023-04-14T07:32:57.783Z,50.902382
2023-04-14T07:33:57.709Z,50.902386
2023-04-14T07:34:58.976Z,50.902363
2023-04-14T07:36:03.308Z,50.902370
2023-04-14T07:36:59.710Z,50.902378
2023-04-14T07:37:57.679Z,50.902370
2023-04-14T07:38:57.672Z,50.902378
2023-04-14T07:39:57.686Z,50.902374
2023-04-14T07:40:57.659Z,50.902382
2023-04-14T07:41:57.645Z,50.902382
2023-04-14T07:42:57.639Z,50.902390
2023-04-14T07:43:57.630Z,50.902378
2023-04-14T07:44:57.650Z,50.902378
2023-04-14T07:45:57.617Z,50.902401
2023-04-14T07:46:57.700Z,50.902390
2023-04-14T07:47:57.916Z,50.902393
2023-04-14T07:48:58.595Z,50.902382
2023-04-14T07:49:57.603Z,50.902401
2023-04-14T07:50:58.425Z,50.902382
2023-04-14T07:51:57.567Z,50.902397
2023-04-14T07:52:57.556Z,50.902386
2023-04-14T07:53:57.555Z,50.902386
2023-04-14T07:54:57.579Z,50.902382
2023-04-14T07:55:57.541Z,50.902382
2023-04-14T07:56:57.576Z,50.902367
2023-04-14T07:57:58.344Z,50.902386
2023-04-14T07:58:57.529Z,50.902363
2023-04-14T07:59:57.550Z,50.902386
2023-04-14T08:00:57.630Z,50.902390
2023-04-14T08:01:57.601Z,50.902378
2023-04-14T08:02:57.623Z,50.902393
2023-04-14T08:03:57.707Z,50.902386
2023-04-14T08:04:57.569Z,50.902390
2023-04-14T08:05:57.485Z,50.902397
2023-04-14T08:06:57.461Z,50.902393
2023-04-14T08:07:57.455Z,50.902397
2023-04-14T08:08:57.446Z,50.902355
2023-04-14T08:09:57.456Z,50.902363
2023-04-14T08:10:57.419Z,50.902374
2023-04-14T08:11:57.424Z,50.902409
2023-04-14T08:12:57.477Z,50.902390
2023-04-14T08:13:57.408Z,50.902386
2023-04-14T08:14:57.417Z,50.902355
2023-04-14T08:15:58.400Z,50.902363
2023-04-14T08:16:57.386Z,50.902344
2023-04-14T08:17:57.431Z,50.902370
2023-04-14T08:18:58.346Z,50.902355
2023-04-14T08:19:58.406Z,50.902386
2023-04-14T08:20:57.364Z,50.902382
2023-04-14T08:21:57.402Z,50.902367
2023-04-14T08:22:57.365Z,50.902367
2023-04-14T08:23:57.322Z,50.902367
2023-04-14T08:24:57.359Z,50.902367
2023-04-14T08:25:57.309Z,50.902340
2023-04-14T08:26:57.294Z,50.902336
2023-04-14T08:27:58.308Z,50.902328
2023-04-14T08:28:57.287Z,50.902359
2023-04-14T08:29:57.283Z,50.902382
2023-04-14T08:30:57.344Z,50.902382
2023-04-14T08:31:57.311Z,50.902344
2023-04-14T08:32:59.228Z,50.902370
2023-04-14T08:33:57.282Z,50.902412
2023-04-14T08:35:35.378Z,50.902351
2023-04-14T08:35:59.690Z,50.902355
2023-04-14T08:36:57.225Z,50.902370
2023-04-14T08:37:57.232Z,50.902363
2023-04-14T08:38:57.256Z,50.902351
2023-04-14T08:39:57.208Z,50.902355
2023-04-14T08:40:57.229Z,50.902363
2023-04-14T08:41:57.188Z,50.902363
2023-04-14T08:42:57.190Z,50.902382
2023-04-14T08:43:57.179Z,50.902382
2023-04-14T08:44:57.187Z,50.902344
2023-04-14T08:45:57.231Z,50.902313
2023-04-14T08:46:57.151Z,50.902328
2023-04-14T08:47:57.169Z,50.902340
2023-04-14T08:48:57.135Z,50.902401
2023-04-14T08:49:57.139Z,50.902386
2023-04-14T08:50:57.150Z,50.902382
2023-04-14T08:51:57.139Z,50.902382
2023-04-14T08:52:57.132Z,50.902367
2023-04-14T08:53:57.157Z,50.902370
2023-04-14T08:54:57.096Z,50.902390
2023-04-14T08:55:58.543Z,50.902378
2023-04-14T08:56:58.143Z,50.902416
2023-04-14T08:57:57.075Z,50.902405
2023-04-14T08:58:57.062Z,50.902393
2023-04-14T08:59:57.071Z,50.902374
2023-04-14T09:00:57.101Z,50.902363
2023-04-14T09:01:57.347Z,50.902393
2023-04-14T09:02:57.068Z,50.902374
2023-04-14T09:03:58.247Z,50.902370
2023-04-14T09:04:57.163Z,50.902351
2023-04-14T09:05:57.032Z,50.902359
2023-04-14T09:06:57.010Z,50.902359
2023-04-14T09:07:56.993Z,50.902363
2023-04-14T09:08:56.990Z,50.902351
2023-04-14T09:09:57.019Z,50.902370
2023-04-14T09:10:56.969Z,50.902363
2023-04-14T09:11:56.963Z,50.902393
2023-04-14T09:12:56.953Z,50.902390
2023-04-14T09:13:56.955Z,50.902374
2023-04-14T09:14:56.969Z,50.902378
2023-04-14T09:15:56.940Z,50.902370
2023-04-14T09:16:56.961Z,50.902378
2023-04-14T09:17:56.976Z,50.902367
2023-04-14T09:18:56.953Z,50.902405
2023-04-14T09:20:38.038Z,50.902382
2023-04-14T09:21:30.246Z,50.902367
2023-04-14T09:21:58.046Z,50.902367
2023-04-14T09:22:56.887Z,50.902370
2023-04-14T09:23:56.889Z,50.902382
2023-04-14T09:24:56.900Z,50.902363
2023-04-14T09:25:56.866Z,50.902405
2023-04-14T09:26:56.855Z,50.902393
2023-04-14T09:27:56.848Z,50.902370
2023-04-14T09:28:56.935Z,50.902328
2023-04-14T09:29:56.861Z,50.902298
2023-04-14T09:30:56.842Z,50.902355
2023-04-14T09:31:56.816Z,50.902370
2023-04-14T09:32:56.875Z,50.902370
2023-04-14T09:33:56.838Z,50.902397
2023-04-14T09:34:58.505Z,50.902382
2023-04-14T09:35:56.812Z,50.902363
2023-04-14T09:36:56.774Z,50.902332
2023-04-14T09:37:56.765Z,50.902378
2023-04-14T09:38:56.766Z,50.902382
2023-04-14T09:39:56.753Z,50.902363
2023-04-14T09:40:57.189Z,50.902363
2023-04-14T09:41:57.740Z,50.902359
2023-04-14T09:42:56.759Z,50.902382
2023-04-14T09:43:56.720Z,50.902390
2023-04-14T09:44:56.739Z,50.902401
2023-04-14T09:45:56.933Z,50.902393
2023-04-14T09:46:56.857Z,50.902378
2023-04-14T09:47:56.701Z,50.902363
2023-04-14T09:48:56.803Z,50.902382
2023-04-14T09:49:56.741Z,50.902390
2023-04-14T09:50:56.691Z,50.902401
2023-04-14T09:51:56.669Z,50.902359
2023-04-14T09:52:56.640Z,50.902390
2023-04-14T09:53:56.641Z,50.902367
2023-04-14T09:54:56.667Z,50.902443
2023-04-14T09:55:56.674Z,50.902428
2023-04-14T09:56:56.617Z,50.902424
2023-04-14T09:57:56.625Z,50.902428
2023-04-14T09:58:56.600Z,50.902416
2023-04-14T09:59:56.593Z,50.902393
2023-04-14T10:00:56.611Z,50.902359
2023-04-14T10:01:56.642Z,50.902428
2023-04-14T10:02:56.803Z,50.902431
2023-04-14T10:03:56.701Z,50.902405
2023-04-14T10:04:56.625Z,50.902393
2023-04-14T10:05:56.580Z,50.902390
2023-04-14T10:06:56.543Z,50.902393
2023-04-14T10:07:56.532Z,50.902397
2023-04-14T10:08:56.533Z,50.902416
2023-04-14T10:09:56.537Z,50.902405
2023-04-14T10:10:56.545Z,50.902397
2023-04-14T10:11:56.502Z,50.902409
2023-04-14T10:12:56.498Z,50.902374
2023-04-14T10:13:56.514Z,50.902393
2023-04-14T10:14:56.473Z,50.902397
2023-04-14T10:15:56.557Z,50.902393
2023-04-14T10:16:56.464Z,50.902416
2023-04-14T10:17:56.495Z,50.902393
2023-04-14T10:18:56.453Z,50.902435
2023-04-14T10:19:56.445Z,50.902462
2023-04-14T10:20:56.457Z,50.902451
2023-04-14T10:21:56.462Z,50.902405
2023-04-14T10:22:56.422Z,50.902412
2023-04-14T10:23:57.452Z,50.902393
2023-04-14T10:24:56.407Z,50.902393
2023-04-14T10:25:56.424Z,50.902390
2023-04-14T10:26:56.385Z,50.902409
2023-04-14T10:27:56.398Z,50.902382
2023-04-14T10:28:56.504Z,50.902431
2023-04-14T10:29:56.371Z,50.902420
2023-04-14T10:30:56.401Z,50.902424
2023-04-14T10:31:56.391Z,50.902382
2023-04-14T10:32:56.381Z,50.902393
2023-04-14T10:33:56.338Z,50.902416
2023-04-14T10:34:56.339Z,50.902420
2023-04-14T10:35:56.358Z,50.902405
2023-04-14T10:36:56.314Z,50.902416
2023-04-14T10:37:56.350Z,50.902424
2023-04-14T10:38:56.298Z,50.902382
2023-04-14T10:39:56.304Z,50.902393
2023-04-14T10:40:56.315Z,50.902390
2023-04-14T10:41:56.274Z,50.902378
2023-04-14T10:42:56.973Z,50.902393
2023-04-14T10:43:56.261Z,50.902412
2023-04-14T10:44:56.602Z,50.902401
2023-04-14T10:45:56.901Z,50.902401
2023-04-14T10:46:56.364Z,50.902409
2023-04-14T10:47:56.286Z,50.902405
2023-04-14T10:48:56.225Z,50.902405
2023-04-14T10:49:56.225Z,50.902428
2023-04-14T10:50:56.356Z,50.902431
2023-04-14T10:51:56.209Z,50.902409
2023-04-14T10:52:56.371Z,50.902431
2023-04-14T10:54:29.013Z,50.902435
2023-04-14T10:54:56.181Z,50.902428
2023-04-14T10:55:56.205Z,50.902416
2023-04-14T10:56:56.172Z,50.902390
2023-04-14T10:57:56.158Z,50.902370
2023-04-14T10:58:56.154Z,50.902435
2023-04-14T10:59:56.162Z,50.902374
2023-04-14T11:00:56.157Z,50.902416
2023-04-14T11:01:56.270Z,50.902409
2023-04-14T11:02:56.221Z,50.902416
2023-04-14T11:03:56.332Z,50.902397
2023-04-14T11:04:56.097Z,50.902405
2023-04-14T11:05:56.118Z,50.902424
2023-04-14T11:06:56.127Z,50.902401
2023-04-14T11:07:56.090Z,50.902409
2023-04-14T11:08:56.069Z,50.902405
2023-04-14T11:09:56.067Z,50.902424
2023-04-14T11:10:56.050Z,50.902409
2023-04-14T11:11:56.093Z,50.902420
2023-04-14T11:12:56.044Z,50.902405
2023-04-14T11:13:56.042Z,50.902416
2023-04-14T11:14:56.029Z,50.902416
2023-04-14T11:15:56.025Z,50.902409
2023-04-14T11:17:04.148Z,50.902409
2023-04-14T11:17:58.006Z,50.902420
2023-04-14T11:18:55.985Z,50.902409
2023-04-14T11:19:55.986Z,50.902405
2023-04-14T11:20:55.984Z,50.902405
2023-04-14T11:21:56.007Z,50.902416
2023-04-14T11:22:55.965Z,50.902405
2023-04-14T11:23:55.964Z,50.902435
2023-04-14T11:24:55.954Z,50.902428
2023-04-14T11:25:55.951Z,50.902397
2023-04-14T11:26:55.993Z,50.902447
2023-04-14T11:27:55.971Z,50.902409
2023-04-14T11:28:55.918Z,50.902412
2023-04-14T11:29:55.932Z,50.902386
2023-04-14T11:30:55.891Z,50.902397
2023-04-14T11:31:55.974Z,50.902409
2023-04-14T11:32:55.937Z,50.902401
2023-04-14T11:33:55.879Z,50.902409